sensor_id;sensor_type;location;lat;lon;timestamp;P1;durP1;ratioP1;P2;durP2;ratioP2
32347;SDS011;18821;44.800;10.326;2024-02-21T00:01:06;30.15;;;17.02;;
32347;SDS011;18821;44.800;10.326;2024-02-21T00:03:32;28.05;;;15.80;;
32347;SDS011;18821;44.800;10.326;2024-02-21T00:05:57;30.98;;;16.77;;
32347;SDS011;18821;44.800;10.326;2024-02-21T00:08:24;28.52;;;15.65;;
32347;SDS011;18821;44.800;10.326;2024-02-21T00:10:50;28.98;;;16.80;;
32347;SDS011;18821;44.800;10.326;2024-02-21T00:13:16;27.85;;;15.80;;
32347;SDS011;18821;44.800;10.326;2024-02-21T00:15:42;31.80;;;15.38;;
32347;SDS011;18821;44.800;10.326;2024-02-21T00:18:08;30.05;;;15.55;;
32347;SDS011;18821;44.800;10.326;2024-02-21T00:20:36;26.85;;;15.55;;
32347;SDS011;18821;44.800;10.326;2024-02-21T00:23:02;26.45;;;15.65;;
32347;SDS011;18821;44.800;10.326;2024-02-21T00:25:28;27.85;;;15.50;;
32347;SDS011;18821;44.800;10.326;2024-02-21T00:27:54;25.25;;;14.50;;
32347;SDS011;18821;44.800;10.326;2024-02-21T00:30:21;29.63;;;15.43;;
32347;SDS011;18821;44.800;10.326;2024-02-21T00:32:47;25.85;;;15.05;;
32347;SDS011;18821;44.800;10.326;2024-02-21T00:35:13;28.85;;;15.45;;
32347;SDS011;18821;44.800;10.326;2024-02-21T00:37:39;25.48;;;14.43;;
32347;SDS011;18821;44.800;10.326;2024-02-21T00:40:05;26.85;;;14.65;;
32347;SDS011;18821;44.800;10.326;2024-02-21T00:42:32;24.27;;;14.75;;
32347;SDS011;18821;44.800;10.326;2024-02-21T00:44:58;27.73;;;14.48;;
32347;SDS011;18821;44.800;10.326;2024-02-21T00:47:24;23.00;;;13.52;;
32347;SDS011;18821;44.800;10.326;2024-02-21T00:49:50;24.27;;;14.13;;
32347;SDS011;18821;44.800;10.326;2024-02-21T00:52:16;24.75;;;13.82;;
32347;SDS011;18821;44.800;10.326;2024-02-21T00:54:42;25.00;;;14.68;;
32347;SDS011;18821;44.800;10.326;2024-02-21T00:57:08;27.08;;;15.02;;
32347;SDS011;18821;44.800;10.326;2024-02-21T00:59:34;27.05;;;14.15;;
32347;SDS011;18821;44.800;10.326;2024-02-21T01:02:00;26.48;;;15.13;;
32347;SDS011;18821;44.800;10.326;2024-02-21T01:04:26;27.05;;;14.98;;
32347;SDS011;18821;44.800;10.326;2024-02-21T01:06:52;28.23;;;13.57;;
32347;SDS011;18821;44.800;10.326;2024-02-21T01:09:18;23.42;;;14.18;;
32347;SDS011;18821;44.800;10.326;2024-02-21T01:11:44;24.50;;;14.32;;
32347;SDS011;18821;44.800;10.326;2024-02-21T01:14:09;22.88;;;13.57;;
32347;SDS011;18821;44.800;10.326;2024-02-21T01:16:36;24.33;;;15.05;;
32347;SDS011;18821;44.800;10.326;2024-02-21T01:19:02;26.23;;;14.27;;
32347;SDS011;18821;44.800;10.326;2024-02-21T01:21:28;25.20;;;14.27;;
32347;SDS011;18821;44.800;10.326;2024-02-21T01:23:54;24.33;;;14.65;;
32347;SDS011;18821;44.800;10.326;2024-02-21T01:26:20;23.10;;;13.77;;
32347;SDS011;18821;44.800;10.326;2024-02-21T01:28:46;25.80;;;15.07;;
32347;SDS011;18821;44.800;10.326;2024-02-21T01:31:12;24.20;;;13.90;;
32347;SDS011;18821;44.800;10.326;2024-02-21T01:33:38;27.35;;;14.75;;
32347;SDS011;18821;44.800;10.326;2024-02-21T01:36:04;27.65;;;14.95;;
32347;SDS011;18821;44.800;10.326;2024-02-21T01:38:33;26.83;;;13.75;;
32347;SDS011;18821;44.800;10.326;2024-02-21T01:40:59;26.30;;;13.07;;
32347;SDS011;18821;44.800;10.326;2024-02-21T01:43:25;23.40;;;13.40;;
32347;SDS011;18821;44.800;10.326;2024-02-21T01:45:52;21.02;;;13.02;;
32347;SDS011;18821;44.800;10.326;2024-02-21T01:48:20;25.90;;;14.73;;
32347;SDS011;18821;44.800;10.326;2024-02-21T01:50:48;23.23;;;13.77;;
32347;SDS011;18821;44.800;10.326;2024-02-21T01:53:18;22.27;;;13.82;;
32347;SDS011;18821;44.800;10.326;2024-02-21T01:55:48;25.65;;;13.32;;
32347;SDS011;18821;44.800;10.326;2024-02-21T01:58:15;22.05;;;13.10;;
32347;SDS011;18821;44.800;10.326;2024-02-21T02:00:42;25.48;;;13.43;;
32347;SDS011;18821;44.800;10.326;2024-02-21T02:03:11;22.98;;;13.55;;
32347;SDS011;18821;44.800;10.326;2024-02-21T02:05:44;23.45;;;13.43;;
32347;SDS011;18821;44.800;10.326;2024-02-21T02:08:14;27.63;;;12.98;;
32347;SDS011;18821;44.800;10.326;2024-02-21T02:10:41;23.60;;;13.45;;
32347;SDS011;18821;44.800;10.326;2024-02-21T02:13:08;25.08;;;14.15;;
32347;SDS011;18821;44.800;10.326;2024-02-21T02:15:52;23.20;;;13.77;;
32347;SDS011;18821;44.800;10.326;2024-02-21T02:18:19;25.30;;;13.60;;
32347;SDS011;18821;44.800;10.326;2024-02-21T02:20:45;22.30;;;12.85;;
32347;SDS011;18821;44.800;10.326;2024-02-21T02:26:10;23.20;;;12.90;;
32347;SDS011;18821;44.800;10.326;2024-02-21T02:28:36;23.13;;;12.80;;
32347;SDS011;18821;44.800;10.326;2024-02-21T02:31:02;23.20;;;13.02;;
32347;SDS011;18821;44.800;10.326;2024-02-21T02:33:28;26.10;;;13.55;;
32347;SDS011;18821;44.800;10.326;2024-02-21T02:35:54;25.77;;;14.13;;
32347;SDS011;18821;44.800;10.326;2024-02-21T02:38:20;25.15;;;14.40;;
32347;SDS011;18821;44.800;10.326;2024-02-21T02:40:46;25.70;;;14.95;;
32347;SDS011;18821;44.800;10.326;2024-02-21T02:43:12;25.50;;;14.23;;
32347;SDS011;18821;44.800;10.326;2024-02-21T02:45:38;27.35;;;14.25;;
32347;SDS011;18821;44.800;10.326;2024-02-21T02:48:03;28.25;;;15.82;;
32347;SDS011;18821;44.800;10.326;2024-02-21T02:50:30;26.25;;;15.23;;
32347;SDS011;18821;44.800;10.326;2024-02-21T02:52:56;25.13;;;14.13;;
32347;SDS011;18821;44.800;10.326;2024-02-21T02:55:21;30.73;;;15.05;;
32347;SDS011;18821;44.800;10.326;2024-02-21T02:57:48;26.73;;;14.50;;
32347;SDS011;18821;44.800;10.326;2024-02-21T03:00:14;29.45;;;16.63;;
32347;SDS011;18821;44.800;10.326;2024-02-21T03:02:41;26.38;;;15.30;;
32347;SDS011;18821;44.800;10.326;2024-02-21T03:05:15;31.33;;;15.57;;
32347;SDS011;18821;44.800;10.326;2024-02-21T03:07:43;23.27;;;13.65;;
32347;SDS011;18821;44.800;10.326;2024-02-21T03:10:09;29.05;;;14.65;;
32347;SDS011;18821;44.800;10.326;2024-02-21T03:12:35;24.77;;;14.80;;
32347;SDS011;18821;44.800;10.326;2024-02-21T03:15:02;25.38;;;14.25;;
32347;SDS011;18821;44.800;10.326;2024-02-21T03:17:28;28.83;;;16.08;;
32347;SDS011;18821;44.800;10.326;2024-02-21T03:19:54;28.95;;;14.65;;
32347;SDS011;18821;44.800;10.326;2024-02-21T03:22:25;24.38;;;13.95;;
32347;SDS011;18821;44.800;10.326;2024-02-21T03:24:51;30.85;;;13.70;;
32347;SDS011;18821;44.800;10.326;2024-02-21T03:27:16;27.80;;;13.65;;
32347;SDS011;18821;44.800;10.326;2024-02-21T03:29:42;26.15;;;13.80;;
32347;SDS011;18821;44.800;10.326;2024-02-21T03:32:09;22.92;;;13.00;;
32347;SDS011;18821;44.800;10.326;2024-02-21T03:34:35;22.88;;;12.90;;
32347;SDS011;18821;44.800;10.326;2024-02-21T03:37:01;20.88;;;11.50;;
32347;SDS011;18821;44.800;10.326;2024-02-21T03:39:27;23.20;;;11.27;;
32347;SDS011;18821;44.800;10.326;2024-02-21T03:41:52;22.00;;;11.75;;
32347;SDS011;18821;44.800;10.326;2024-02-21T03:44:19;21.48;;;12.15;;
32347;SDS011;18821;44.800;10.326;2024-02-21T03:46:44;20.42;;;11.13;;
32347;SDS011;18821;44.800;10.326;2024-02-21T03:49:10;23.30;;;12.70;;
32347;SDS011;18821;44.800;10.326;2024-02-21T03:51:37;23.33;;;12.00;;
32347;SDS011;18821;44.800;10.326;2024-02-21T03:54:02;21.98;;;12.00;;
32347;SDS011;18821;44.800;10.326;2024-02-21T03:56:28;26.02;;;12.23;;
32347;SDS011;18821;44.800;10.326;2024-02-21T03:58:54;25.45;;;13.52;;
32347;SDS011;18821;44.800;10.326;2024-02-21T04:01:21;25.60;;;12.82;;
32347;SDS011;18821;44.800;10.326;2024-02-21T04:03:46;21.33;;;12.48;;
32347;SDS011;18821;44.800;10.326;2024-02-21T04:06:12;23.15;;;13.00;;
32347;SDS011;18821;44.800;10.326;2024-02-21T04:08:38;20.90;;;11.80;;
32347;SDS011;18821;44.800;10.326;2024-02-21T04:11:04;25.10;;;13.20;;
32347;SDS011;18821;44.800;10.326;2024-02-21T04:13:30;22.80;;;12.38;;
32347;SDS011;18821;44.800;10.326;2024-02-21T04:15:56;21.60;;;11.38;;
32347;SDS011;18821;44.800;10.326;2024-02-21T04:18:22;21.63;;;12.20;;
32347;SDS011;18821;44.800;10.326;2024-02-21T04:20:48;25.48;;;14.50;;
32347;SDS011;18821;44.800;10.326;2024-02-21T04:23:15;26.70;;;13.85;;
32347;SDS011;18821;44.800;10.326;2024-02-21T04:25:41;25.05;;;13.15;;
32347;SDS011;18821;44.800;10.326;2024-02-21T04:28:07;29.83;;;14.07;;
32347;SDS011;18821;44.800;10.326;2024-02-21T04:30:33;27.45;;;14.27;;
32347;SDS011;18821;44.800;10.326;2024-02-21T04:32:59;23.48;;;13.23;;
32347;SDS011;18821;44.800;10.326;2024-02-21T04:35:25;24.27;;;14.10;;
32347;SDS011;18821;44.800;10.326;2024-02-21T04:37:51;26.08;;;14.05;;
32347;SDS011;18821;44.800;10.326;2024-02-21T04:40:17;23.10;;;13.82;;
32347;SDS011;18821;44.800;10.326;2024-02-21T04:42:43;26.27;;;13.95;;
32347;SDS011;18821;44.800;10.326;2024-02-21T04:45:09;22.38;;;12.82;;
32347;SDS011;18821;44.800;10.326;2024-02-21T04:47:35;20.95;;;12.60;;
32347;SDS011;18821;44.800;10.326;2024-02-21T04:50:01;25.63;;;14.10;;
32347;SDS011;18821;44.800;10.326;2024-02-21T04:52:27;26.75;;;13.25;;
32347;SDS011;18821;44.800;10.326;2024-02-21T04:54:53;26.48;;;13.73;;
32347;SDS011;18821;44.800;10.326;2024-02-21T04:57:19;24.80;;;13.48;;
32347;SDS011;18821;44.800;10.326;2024-02-21T04:59:45;20.23;;;12.15;;
32347;SDS011;18821;44.800;10.326;2024-02-21T05:02:14;22.45;;;11.38;;
32347;SDS011;18821;44.800;10.326;2024-02-21T05:04:42;22.17;;;12.30;;
32347;SDS011;18821;44.800;10.326;2024-02-21T05:07:08;22.63;;;12.63;;
32347;SDS011;18821;44.800;10.326;2024-02-21T05:09:36;22.05;;;12.35;;
32347;SDS011;18821;44.800;10.326;2024-02-21T05:12:02;25.40;;;12.05;;
32347;SDS011;18821;44.800;10.326;2024-02-21T05:14:28;22.88;;;11.40;;
32347;SDS011;18821;44.800;10.326;2024-02-21T05:16:54;27.02;;;13.05;;
32347;SDS011;18821;44.800;10.326;2024-02-21T05:19:20;20.90;;;12.05;;
32347;SDS011;18821;44.800;10.326;2024-02-21T05:21:46;20.20;;;11.40;;
32347;SDS011;18821;44.800;10.326;2024-02-21T05:24:12;19.70;;;10.93;;
32347;SDS011;18821;44.800;10.326;2024-02-21T05:26:38;21.70;;;12.32;;
32347;SDS011;18821;44.800;10.326;2024-02-21T05:29:04;21.30;;;11.20;;
32347;SDS011;18821;44.800;10.326;2024-02-21T05:34:18;26.70;;;12.38;;
32347;SDS011;18821;44.800;10.326;2024-02-21T05:36:44;22.90;;;12.88;;
32347;SDS011;18821;44.800;10.326;2024-02-21T05:39:11;24.55;;;11.95;;
32347;SDS011;18821;44.800;10.326;2024-02-21T05:41:37;21.88;;;11.43;;
32347;SDS011;18821;44.800;10.326;2024-02-21T05:44:03;23.38;;;13.27;;
32347;SDS011;18821;44.800;10.326;2024-02-21T05:46:29;27.05;;;13.10;;
32347;SDS011;18821;44.800;10.326;2024-02-21T05:48:55;34.90;;;12.85;;
32347;SDS011;18821;44.800;10.326;2024-02-21T05:51:21;24.02;;;12.82;;
32347;SDS011;18821;44.800;10.326;2024-02-21T05:53:47;25.08;;;12.60;;
32347;SDS011;18821;44.800;10.326;2024-02-21T05:56:13;29.63;;;12.75;;
32347;SDS011;18821;44.800;10.326;2024-02-21T05:58:40;21.85;;;12.45;;
32347;SDS011;18821;44.800;10.326;2024-02-21T06:01:07;20.75;;;12.48;;
32347;SDS011;18821;44.800;10.326;2024-02-21T06:03:33;25.80;;;13.38;;
32347;SDS011;18821;44.800;10.326;2024-02-21T06:05:59;29.35;;;12.60;;
32347;SDS011;18821;44.800;10.326;2024-02-21T06:08:26;24.88;;;12.80;;
32347;SDS011;18821;44.800;10.326;2024-02-21T06:10:52;24.58;;;12.68;;
32347;SDS011;18821;44.800;10.326;2024-02-21T06:13:20;25.90;;;12.35;;
32347;SDS011;18821;44.800;10.326;2024-02-21T06:15:49;26.60;;;13.40;;
32347;SDS011;18821;44.800;10.326;2024-02-21T06:18:19;22.30;;;12.27;;
32347;SDS011;18821;44.800;10.326;2024-02-21T06:20:46;22.77;;;12.25;;
32347;SDS011;18821;44.800;10.326;2024-02-21T06:23:12;24.38;;;11.98;;
32347;SDS011;18821;44.800;10.326;2024-02-21T06:25:39;24.70;;;12.25;;
32347;SDS011;18821;44.800;10.326;2024-02-21T06:28:05;28.08;;;14.05;;
32347;SDS011;18821;44.800;10.326;2024-02-21T06:30:31;26.17;;;13.50;;
32347;SDS011;18821;44.800;10.326;2024-02-21T06:32:57;23.60;;;13.15;;
32347;SDS011;18821;44.800;10.326;2024-02-21T06:35:24;23.50;;;12.27;;
32347;SDS011;18821;44.800;10.326;2024-02-21T06:37:51;23.10;;;13.43;;
32347;SDS011;18821;44.800;10.326;2024-02-21T06:40:21;31.08;;;13.70;;
32347;SDS011;18821;44.800;10.326;2024-02-21T06:42:48;31.40;;;14.38;;
32347;SDS011;18821;44.800;10.326;2024-02-21T06:45:14;25.67;;;13.40;;
32347;SDS011;18821;44.800;10.326;2024-02-21T06:47:41;22.25;;;12.57;;
32347;SDS011;18821;44.800;10.326;2024-02-21T06:50:07;27.92;;;12.57;;
32347;SDS011;18821;44.800;10.326;2024-02-21T06:52:36;35.53;;;15.10;;
32347;SDS011;18821;44.800;10.326;2024-02-21T06:55:02;29.58;;;14.30;;
32347;SDS011;18821;44.800;10.326;2024-02-21T06:57:29;29.83;;;13.40;;
32347;SDS011;18821;44.800;10.326;2024-02-21T06:59:55;24.20;;;13.32;;
32347;SDS011;18821;44.800;10.326;2024-02-21T07:02:21;29.63;;;14.93;;
32347;SDS011;18821;44.800;10.326;2024-02-21T07:04:47;27.92;;;14.38;;
32347;SDS011;18821;44.800;10.326;2024-02-21T07:07:13;28.80;;;13.43;;
32347;SDS011;18821;44.800;10.326;2024-02-21T07:09:39;29.90;;;14.38;;
32347;SDS011;18821;44.800;10.326;2024-02-21T07:12:05;29.60;;;14.30;;
32347;SDS011;18821;44.800;10.326;2024-02-21T07:14:35;41.70;;;14.18;;
32347;SDS011;18821;44.800;10.326;2024-02-21T07:17:02;27.17;;;11.70;;
32347;SDS011;18821;44.800;10.326;2024-02-21T07:19:28;32.88;;;13.85;;
32347;SDS011;18821;44.800;10.326;2024-02-21T07:21:54;29.70;;;13.35;;
32347;SDS011;18821;44.800;10.326;2024-02-21T07:24:20;38.80;;;13.20;;
32347;SDS011;18821;44.800;10.326;2024-02-21T07:26:46;25.20;;;12.38;;
32347;SDS011;18821;44.800;10.326;2024-02-21T07:29:12;22.23;;;11.10;;
32347;SDS011;18821;44.800;10.326;2024-02-21T07:31:41;40.75;;;14.05;;
32347;SDS011;18821;44.800;10.326;2024-02-21T07:34:08;37.42;;;11.82;;
32347;SDS011;18821;44.800;10.326;2024-02-21T07:36:34;24.77;;;13.23;;
32347;SDS011;18821;44.800;10.326;2024-02-21T07:39:00;29.85;;;13.50;;
32347;SDS011;18821;44.800;10.326;2024-02-21T07:41:26;22.15;;;13.13;;
32347;SDS011;18821;44.800;10.326;2024-02-21T07:43:55;25.70;;;12.55;;
32347;SDS011;18821;44.800;10.326;2024-02-21T07:46:21;30.27;;;12.98;;
32347;SDS011;18821;44.800;10.326;2024-02-21T07:48:47;33.25;;;13.90;;
32347;SDS011;18821;44.800;10.326;2024-02-21T07:51:13;26.42;;;12.70;;
32347;SDS011;18821;44.800;10.326;2024-02-21T07:53:42;25.90;;;13.27;;
32347;SDS011;18821;44.800;10.326;2024-02-21T07:56:12;22.25;;;11.98;;
32347;SDS011;18821;44.800;10.326;2024-02-21T07:58:41;24.00;;;12.63;;
32347;SDS011;18821;44.800;10.326;2024-02-21T08:01:08;26.23;;;12.30;;
32347;SDS011;18821;44.800;10.326;2024-02-21T08:03:34;21.42;;;11.35;;
32347;SDS011;18821;44.800;10.326;2024-02-21T08:06:02;24.55;;;11.73;;
32347;SDS011;18821;44.800;10.326;2024-02-21T08:08:28;28.52;;;13.32;;
32347;SDS011;18821;44.800;10.326;2024-02-21T08:10:54;26.15;;;12.00;;
32347;SDS011;18821;44.800;10.326;2024-02-21T08:13:20;26.70;;;12.95;;
32347;SDS011;18821;44.800;10.326;2024-02-21T08:15:46;28.30;;;12.35;;
32347;SDS011;18821;44.800;10.326;2024-02-21T08:18:12;24.17;;;13.10;;
32347;SDS011;18821;44.800;10.326;2024-02-21T08:20:38;21.33;;;11.35;;
32347;SDS011;18821;44.800;10.326;2024-02-21T08:23:04;25.92;;;12.50;;
32347;SDS011;18821;44.800;10.326;2024-02-21T08:25:30;21.13;;;12.77;;
32347;SDS011;18821;44.800;10.326;2024-02-21T08:27:57;19.90;;;11.52;;
32347;SDS011;18821;44.800;10.326;2024-02-21T08:30:24;24.80;;;13.00;;
32347;SDS011;18821;44.800;10.326;2024-02-21T08:32:50;32.97;;;12.82;;
32347;SDS011;18821;44.800;10.326;2024-02-21T08:35:16;25.25;;;13.95;;
32347;SDS011;18821;44.800;10.326;2024-02-21T08:37:47;21.95;;;12.15;;
32347;SDS011;18821;44.800;10.326;2024-02-21T08:40:13;25.88;;;13.57;;
32347;SDS011;18821;44.800;10.326;2024-02-21T08:42:42;26.83;;;14.68;;
32347;SDS011;18821;44.800;10.326;2024-02-21T08:45:09;30.55;;;15.10;;
32347;SDS011;18821;44.800;10.326;2024-02-21T08:47:35;32.58;;;15.95;;
32347;SDS011;18821;44.800;10.326;2024-02-21T08:50:02;30.13;;;15.52;;
32347;SDS011;18821;44.800;10.326;2024-02-21T08:52:28;31.10;;;17.13;;
32347;SDS011;18821;44.800;10.326;2024-02-21T08:54:54;29.25;;;16.27;;
32347;SDS011;18821;44.800;10.326;2024-02-21T08:57:20;34.00;;;16.90;;
32347;SDS011;18821;44.800;10.326;2024-02-21T08:59:46;36.13;;;18.50;;
32347;SDS011;18821;44.800;10.326;2024-02-21T09:02:12;41.80;;;20.60;;
32347;SDS011;18821;44.800;10.326;2024-02-21T09:04:41;38.58;;;19.00;;
32347;SDS011;18821;44.800;10.326;2024-02-21T09:07:08;40.90;;;20.20;;
32347;SDS011;18821;44.800;10.326;2024-02-21T09:09:33;44.08;;;22.13;;
32347;SDS011;18821;44.800;10.326;2024-02-21T09:11:59;39.35;;;20.67;;
32347;SDS011;18821;44.800;10.326;2024-02-21T09:14:34;39.10;;;22.05;;
32347;SDS011;18821;44.800;10.326;2024-02-21T09:17:03;38.08;;;20.60;;
32347;SDS011;18821;44.800;10.326;2024-02-21T09:19:29;43.55;;;23.08;;
32347;SDS011;18821;44.800;10.326;2024-02-21T09:21:55;42.58;;;22.80;;
32347;SDS011;18821;44.800;10.326;2024-02-21T09:24:21;41.50;;;23.63;;
32347;SDS011;18821;44.800;10.326;2024-02-21T09:26:47;44.65;;;24.33;;
32347;SDS011;18821;44.800;10.326;2024-02-21T09:29:14;47.85;;;25.98;;
32347;SDS011;18821;44.800;10.326;2024-02-21T09:31:41;48.08;;;26.25;;
32347;SDS011;18821;44.800;10.326;2024-02-21T09:34:07;55.13;;;29.00;;
32347;SDS011;18821;44.800;10.326;2024-02-21T09:36:33;51.78;;;26.50;;
32347;SDS011;18821;44.800;10.326;2024-02-21T09:38:59;54.05;;;26.45;;
32347;SDS011;18821;44.800;10.326;2024-02-21T09:41:25;54.72;;;27.08;;
32347;SDS011;18821;44.800;10.326;2024-02-21T09:43:53;50.75;;;28.38;;
32347;SDS011;18821;44.800;10.326;2024-02-21T09:46:19;51.38;;;28.73;;
32347;SDS011;18821;44.800;10.326;2024-02-21T09:51:43;63.95;;;28.60;;
32347;SDS011;18821;44.800;10.326;2024-02-21T09:54:10;55.10;;;28.88;;
32347;SDS011;18821;44.800;10.326;2024-02-21T09:56:36;49.08;;;26.65;;
32347;SDS011;18821;44.800;10.326;2024-02-21T09:59:02;52.65;;;27.85;;
32347;SDS011;18821;44.800;10.326;2024-02-21T10:01:30;53.95;;;29.90;;
32347;SDS011;18821;44.800;10.326;2024-02-21T10:03:57;55.08;;;30.30;;
32347;SDS011;18821;44.800;10.326;2024-02-21T10:06:23;61.67;;;29.65;;
32347;SDS011;18821;44.800;10.326;2024-02-21T10:08:53;60.55;;;31.00;;
32347;SDS011;18821;44.800;10.326;2024-02-21T10:11:25;59.13;;;30.70;;
32347;SDS011;18821;44.800;10.326;2024-02-21T10:14:02;58.05;;;30.92;;
32347;SDS011;18821;44.800;10.326;2024-02-21T10:16:30;55.20;;;32.47;;
32347;SDS011;18821;44.800;10.326;2024-02-21T10:18:56;58.72;;;32.83;;
32347;SDS011;18821;44.800;10.326;2024-02-21T10:21:22;58.92;;;32.85;;
32347;SDS011;18821;44.800;10.326;2024-02-21T10:23:48;60.60;;;30.40;;
32347;SDS011;18821;44.800;10.326;2024-02-21T10:26:15;58.00;;;30.95;;
32347;SDS011;18821;44.800;10.326;2024-02-21T10:28:42;58.22;;;30.67;;
32347;SDS011;18821;44.800;10.326;2024-02-21T10:31:31;68.72;;;32.10;;
32347;SDS011;18821;44.800;10.326;2024-02-21T10:33:56;59.05;;;32.42;;
32347;SDS011;18821;44.800;10.326;2024-02-21T10:36:23;58.97;;;32.30;;
32347;SDS011;18821;44.800;10.326;2024-02-21T10:38:50;61.22;;;33.85;;
32347;SDS011;18821;44.800;10.326;2024-02-21T10:41:17;64.85;;;33.08;;
32347;SDS011;18821;44.800;10.326;2024-02-21T10:43:48;63.22;;;33.88;;
32347;SDS011;18821;44.800;10.326;2024-02-21T10:46:20;65.85;;;35.72;;
32347;SDS011;18821;44.800;10.326;2024-02-21T10:48:47;66.47;;;36.95;;
32347;SDS011;18821;44.800;10.326;2024-02-21T10:51:18;69.30;;;36.80;;
32347;SDS011;18821;44.800;10.326;2024-02-21T10:56:33;62.53;;;35.22;;
32347;SDS011;18821;44.800;10.326;2024-02-21T10:59:02;70.82;;;38.63;;
32347;SDS011;18821;44.800;10.326;2024-02-21T11:01:32;70.82;;;38.95;;
32347;SDS011;18821;44.800;10.326;2024-02-21T11:04:10;66.75;;;36.33;;
32347;SDS011;18821;44.800;10.326;2024-02-21T11:06:38;74.22;;;38.67;;
32347;SDS011;18821;44.800;10.326;2024-02-21T11:09:06;65.53;;;35.42;;
32347;SDS011;18821;44.800;10.326;2024-02-21T11:11:43;64.53;;;35.38;;
32347;SDS011;18821;44.800;10.326;2024-02-21T11:14:10;65.88;;;35.90;;
32347;SDS011;18821;44.800;10.326;2024-02-21T11:16:43;67.15;;;37.28;;
32347;SDS011;18821;44.800;10.326;2024-02-21T11:19:10;60.67;;;34.72;;
32347;SDS011;18821;44.800;10.326;2024-02-21T11:21:49;59.20;;;35.60;;
32347;SDS011;18821;44.800;10.326;2024-02-21T11:26:54;69.10;;;37.15;;
32347;SDS011;18821;44.800;10.326;2024-02-21T11:29:23;64.25;;;37.30;;
32347;SDS011;18821;44.800;10.326;2024-02-21T11:31:54;67.22;;;38.45;;
32347;SDS011;18821;44.800;10.326;2024-02-21T11:34:20;64.32;;;36.33;;
32347;SDS011;18821;44.800;10.326;2024-02-21T11:36:50;64.78;;;36.50;;
32347;SDS011;18821;44.800;10.326;2024-02-21T11:39:22;63.28;;;36.65;;
32347;SDS011;18821;44.800;10.326;2024-02-21T11:42:04;59.42;;;34.53;;
32347;SDS011;18821;44.800;10.326;2024-02-21T11:44:33;61.90;;;35.65;;
32347;SDS011;18821;44.800;10.326;2024-02-21T11:47:00;60.33;;;34.78;;
32347;SDS011;18821;44.800;10.326;2024-02-21T11:49:28;63.53;;;34.92;;
32347;SDS011;18821;44.800;10.326;2024-02-21T11:51:58;69.90;;;37.28;;
32347;SDS011;18821;44.800;10.326;2024-02-21T11:54:26;65.32;;;37.20;;
32347;SDS011;18821;44.800;10.326;2024-02-21T11:56:53;61.83;;;36.92;;
32347;SDS011;18821;44.800;10.326;2024-02-21T11:59:19;75.65;;;39.70;;
32347;SDS011;18821;44.800;10.326;2024-02-21T12:01:45;68.43;;;38.70;;
32347;SDS011;18821;44.800;10.326;2024-02-21T12:04:12;68.53;;;38.85;;
32347;SDS011;18821;44.800;10.326;2024-02-21T12:06:38;68.18;;;38.22;;
32347;SDS011;18821;44.800;10.326;2024-02-21T12:09:07;65.28;;;38.83;;
32347;SDS011;18821;44.800;10.326;2024-02-21T12:11:36;70.82;;;40.38;;
32347;SDS011;18821;44.800;10.326;2024-02-21T12:14:02;67.63;;;37.53;;
32347;SDS011;18821;44.800;10.326;2024-02-21T12:16:33;63.63;;;38.85;;
32347;SDS011;18821;44.800;10.326;2024-02-21T12:18:59;68.47;;;37.88;;
32347;SDS011;18821;44.800;10.326;2024-02-21T12:21:26;69.10;;;39.78;;
32347;SDS011;18821;44.800;10.326;2024-02-21T12:23:55;65.07;;;40.85;;
32347;SDS011;18821;44.800;10.326;2024-02-21T12:26:21;72.15;;;41.22;;
32347;SDS011;18821;44.800;10.326;2024-02-21T12:28:48;68.88;;;39.30;;
32347;SDS011;18821;44.800;10.326;2024-02-21T12:31:14;71.53;;;38.83;;
32347;SDS011;18821;44.800;10.326;2024-02-21T12:33:42;65.80;;;38.33;;
32347;SDS011;18821;44.800;10.326;2024-02-21T12:36:08;67.88;;;39.90;;
32347;SDS011;18821;44.800;10.326;2024-02-21T12:38:35;69.50;;;39.63;;
32347;SDS011;18821;44.800;10.326;2024-02-21T12:41:01;64.50;;;39.65;;
32347;SDS011;18821;44.800;10.326;2024-02-21T12:43:27;62.72;;;35.08;;
32347;SDS011;18821;44.800;10.326;2024-02-21T12:45:53;70.90;;;39.30;;
32347;SDS011;18821;44.800;10.326;2024-02-21T12:48:19;69.97;;;40.13;;
32347;SDS011;18821;44.800;10.326;2024-02-21T12:50:48;66.75;;;39.42;;
32347;SDS011;18821;44.800;10.326;2024-02-21T12:53:18;71.40;;;40.03;;
32347;SDS011;18821;44.800;10.326;2024-02-21T12:55:47;65.75;;;38.38;;
32347;SDS011;18821;44.800;10.326;2024-02-21T12:58:14;62.05;;;37.40;;
32347;SDS011;18821;44.800;10.326;2024-02-21T13:00:40;65.28;;;37.50;;
32347;SDS011;18821;44.800;10.326;2024-02-21T13:03:06;61.35;;;36.70;;
32347;SDS011;18821;44.800;10.326;2024-02-21T13:05:33;57.22;;;32.03;;
32347;SDS011;18821;44.800;10.326;2024-02-21T13:07:59;57.38;;;33.45;;
32347;SDS011;18821;44.800;10.326;2024-02-21T13:10:25;59.13;;;34.85;;
32347;SDS011;18821;44.800;10.326;2024-02-21T13:12:51;62.00;;;35.28;;
32347;SDS011;18821;44.800;10.326;2024-02-21T13:15:17;54.63;;;33.90;;
32347;SDS011;18821;44.800;10.326;2024-02-21T13:17:43;57.08;;;35.08;;
32347;SDS011;18821;44.800;10.326;2024-02-21T13:20:10;61.78;;;34.10;;
32347;SDS011;18821;44.800;10.326;2024-02-21T13:22:37;57.53;;;32.63;;
32347;SDS011;18821;44.800;10.326;2024-02-21T13:25:03;55.72;;;33.72;;
32347;SDS011;18821;44.800;10.326;2024-02-21T13:27:33;53.67;;;31.75;;
32347;SDS011;18821;44.800;10.326;2024-02-21T13:29:59;56.50;;;33.22;;
32347;SDS011;18821;44.800;10.326;2024-02-21T13:32:28;57.00;;;33.80;;
32347;SDS011;18821;44.800;10.326;2024-02-21T13:34:54;57.95;;;35.28;;
32347;SDS011;18821;44.800;10.326;2024-02-21T13:37:20;54.78;;;33.92;;
32347;SDS011;18821;44.800;10.326;2024-02-21T13:39:46;55.60;;;34.45;;
32347;SDS011;18821;44.800;10.326;2024-02-21T13:42:13;57.25;;;34.88;;
32347;SDS011;18821;44.800;10.326;2024-02-21T13:44:39;53.60;;;33.97;;
32347;SDS011;18821;44.800;10.326;2024-02-21T13:47:05;53.40;;;32.22;;
32347;SDS011;18821;44.800;10.326;2024-02-21T13:49:33;57.03;;;34.03;;
32347;SDS011;18821;44.800;10.326;2024-02-21T13:51:59;66.25;;;37.45;;
32347;SDS011;18821;44.800;10.326;2024-02-21T13:54:25;59.80;;;35.17;;
32347;SDS011;18821;44.800;10.326;2024-02-21T13:56:51;53.88;;;32.30;;
32347;SDS011;18821;44.800;10.326;2024-02-21T13:59:17;56.03;;;33.72;;
32347;SDS011;18821;44.800;10.326;2024-02-21T14:01:44;59.03;;;35.08;;
32347;SDS011;18821;44.800;10.326;2024-02-21T14:04:10;54.33;;;33.33;;
32347;SDS011;18821;44.800;10.326;2024-02-21T14:06:36;54.45;;;32.30;;
32347;SDS011;18821;44.800;10.326;2024-02-21T14:09:11;54.33;;;32.33;;
32347;SDS011;18821;44.800;10.326;2024-02-21T14:11:37;61.72;;;36.38;;
32347;SDS011;18821;44.800;10.326;2024-02-21T14:14:05;59.38;;;34.10;;
32347;SDS011;18821;44.800;10.326;2024-02-21T14:16:31;62.97;;;35.85;;
32347;SDS011;18821;44.800;10.326;2024-02-21T14:18:58;59.50;;;34.70;;
32347;SDS011;18821;44.800;10.326;2024-02-21T14:21:24;59.28;;;34.60;;